Terminal Aerodrome Forecast
Issued by NWS

Home | Current Version | Previous Version | Graphics & Text | Print | Product List | Glossary On
Versions: 1 2 3 4 5 6 7 8 9 10 11 12 13 14 15 16 17 18 19 20 21 22 23 24 25 26 27 28 29 30
799
FTUS43 KGRB 270342 AAC
TAFCWA
TAF AMD
KCWA 270342Z 2704/2724 34003KT P6SM SCT060
      TEMPO 2704/2707 2SM BR BKN002
     FM270700 02004KT 6SM BR SKC
     FM271600 05007KT P6SM SCT040=

USA.gov is the U.S. government's official web portal to all federal, state and local government web resources and services.